Time;durP1;ratioP1;P1;durP2;ratioP2;P2;SDS_P1;SDS_P2;PMS_P1;PMS_P2;Temp;Humidity;BMP_temperature;BMP_pressure;BME280_temperature;BME280_humidity;BME280_pressure;Samples;Min_cycle;Max_cycle;Signal;HPM_P1;HPM_P2
2021/11/27 00:01:04;;;;;;;1.48;1.38;;;;;;;;;;5013449;28;20164;-53
2021/11/27 00:03:30;;;;;;;2.00;1.90;;;;;;;;;;5013331;28;20199;-53
2021/11/27 00:05:57;;;;;;;1.83;1.73;;;;;;;;;;5013477;28;20655;-52
2021/11/27 00:08:23;;;;;;;1.65;1.38;;;;;;;;;;5012695;28;20910;-52
2021/11/27 00:10:51;;;;;;;2.85;1.70;;;;;;;;;;5013252;28;20525;-52
2021/11/27 00:13:17;;;;;;;1.80;1.70;;;;;;;;;;5013278;28;20168;-51
2021/11/27 00:15:45;;;;;;;1.63;1.52;;;;;;;;;;5013243;28;20651;-52
2021/11/27 00:18:11;;;;;;;1.60;1.50;;;;;;;;;;5012575;28;20286;-52
2021/11/27 00:20:42;;;;;;;1.80;1.70;;;;;;;;;;5013115;28;20208;-51
2021/11/27 00:23:08;;;;;;;3.10;2.00;;;;;;;;;;5013101;28;20192;-52
2021/11/27 00:25:35;;;;;;;1.80;1.70;;;;;;;;;;5013154;28;20178;-52
2021/11/27 00:28:01;;;;;;;1.70;1.60;;;;;;;;;;4994713;28;20536;-53
2021/11/27 00:30:29;;;;;;;1.90;1.80;;;;;;;;;;5013070;28;20172;-53
2021/11/27 00:32:55;;;;;;;2.30;2.20;;;;;;;;;;5012950;28;20176;-51
2021/11/27 00:35:21;;;;;;;2.08;1.50;;;;;;;;;;5012911;28;20164;-52
2021/11/27 00:37:48;;;;;;;1.73;1.63;;;;;;;;;;5012122;28;20199;-53
2021/11/27 00:40:14;;;;;;;1.70;1.60;;;;;;;;;;5012720;28;20474;-53
2021/11/27 00:42:40;;;;;;;1.75;1.38;;;;;;;;;;5012723;28;20628;-52
2021/11/27 00:45:11;;;;;;;1.50;1.40;;;;;;;;;;5012742;28;20191;-53
2021/11/27 00:47:38;;;;;;;2.78;1.55;;;;;;;;;;5012041;28;20171;-52
2021/11/27 00:50:04;;;;;;;1.30;1.25;;;;;;;;;;5012659;28;20699;-52
2021/11/27 00:52:30;;;;;;;1.67;1.58;;;;;;;;;;5012540;28;20165;-53
2021/11/27 00:54:56;;;;;;;2.15;1.50;;;;;;;;;;5012613;28;20172;-52
2021/11/27 00:57:22;;;;;;;1.80;1.70;;;;;;;;;;5012645;28;20182;-53
2021/11/27 00:59:48;;;;;;;1.47;1.33;;;;;;;;;;5012172;28;20184;-53
2021/11/27 01:02:14;;;;;;;1.60;1.50;;;;;;;;;;5012613;28;20419;-53
2021/11/27 01:04:41;;;;;;;1.55;1.45;;;;;;;;;;5012365;28;20450;-54
2021/11/27 01:07:07;;;;;;;1.80;1.70;;;;;;;;;;5012513;28;20160;-53
2021/11/27 01:09:33;;;;;;;2.10;2.00;;;;;;;;;;5012219;28;20188;-52
2021/11/27 01:11:59;;;;;;;1.60;1.50;;;;;;;;;;5012034;28;20670;-53
2021/11/27 01:14:27;;;;;;;2.63;1.60;;;;;;;;;;5012448;28;20204;-53
2021/11/27 01:16:54;;;;;;;2.55;2.33;;;;;;;;;;5012367;28;20414;-53
2021/11/27 01:19:20;;;;;;;2.00;1.90;;;;;;;;;;5011272;28;20259;-53
2021/11/27 01:21:55;;;;;;;1.70;1.60;;;;;;;;;;5012234;28;20713;-53
2021/11/27 01:24:21;;;;;;;2.20;2.00;;;;;;;;;;5012409;28;20196;-53
2021/11/27 01:26:47;;;;;;;1.98;1.88;;;;;;;;;;5012302;28;20168;-53
2021/11/27 01:29:13;;;;;;;1.83;1.73;;;;;;;;;;5011694;28;20188;-53
2021/11/27 01:31:40;;;;;;;1.73;1.63;;;;;;;;;;5012341;28;20164;-53
2021/11/27 01:34:07;;;;;;;1.70;1.60;;;;;;;;;;5012076;28;20651;-53
2021/11/27 01:36:33;;;;;;;2.10;2.00;;;;;;;;;;5012366;28;20280;-53
2021/11/27 01:38:59;;;;;;;2.75;1.85;;;;;;;;;;5011268;28;20691;-53
2021/11/27 01:41:25;;;;;;;2.03;1.92;;;;;;;;;;5012314;28;20258;-52
2021/11/27 01:43:52;;;;;;;2.00;1.90;;;;;;;;;;5011899;28;20295;-51
2021/11/27 01:46:18;;;;;;;2.22;2.03;;;;;;;;;;5011976;28;20406;-51
2021/11/27 01:48:46;;;;;;;1.90;1.80;;;;;;;;;;5011072;28;20184;-51
2021/11/27 01:51:13;;;;;;;2.03;1.92;;;;;;;;;;5011983;28;20243;-52
2021/11/27 01:53:40;;;;;;;2.42;2.13;;;;;;;;;;5011834;28;20172;-52
2021/11/27 01:56:08;;;;;;;1.90;1.80;;;;;;;;;;5011971;28;20255;-52
2021/11/27 01:58:35;;;;;;;2.05;1.95;;;;;;;;;;5011151;28;20200;-52
2021/11/27 02:01:05;;;;;;;4.55;2.20;;;;;;;;;;5011322;28;20172;-52
2021/11/27 02:03:31;;;;;;;1.98;1.88;;;;;;;;;;5011501;28;20192;-53
2021/11/27 02:05:57;;;;;;;2.08;1.98;;;;;;;;;;5011513;28;20577;-53
2021/11/27 02:08:24;;;;;;;1.90;1.80;;;;;;;;;;5010203;28;20215;-52
2021/11/27 02:10:52;;;;;;;1.88;1.77;;;;;;;;;;5012024;28;20752;-53
2021/11/27 02:13:18;;;;;;;1.88;1.77;;;;;;;;;;5011599;28;20174;-52
2021/11/27 02:15:44;;;;;;;1.85;1.75;;;;;;;;;;5011633;28;20172;-53
2021/11/27 02:18:11;;;;;;;2.00;1.90;;;;;;;;;;5010896;28;20650;-53
2021/11/27 02:20:38;;;;;;;2.95;2.30;;;;;;;;;;5011916;28;20537;-53
2021/11/27 02:23:04;;;;;;;2.20;2.10;;;;;;;;;;5011548;28;20561;-53
2021/11/27 02:25:32;;;;;;;1.85;1.75;;;;;;;;;;5014828;28;20175;-53
2021/11/27 02:27:58;;;;;;;2.30;2.20;;;;;;;;;;5014573;28;20222;-53
2021/11/27 02:30:24;;;;;;;2.05;1.95;;;;;;;;;;5015209;28;20175;-54
2021/11/27 02:32:51;;;;;;;2.33;2.15;;;;;;;;;;5015194;28;20172;-54
2021/11/27 02:35:18;;;;;;;2.50;2.30;;;;;;;;;;5014798;28;20176;-53
2021/11/27 02:37:44;;;;;;;2.08;1.88;;;;;;;;;;5014455;28;20521;-52
2021/11/27 02:40:11;;;;;;;2.30;2.20;;;;;;;;;;5031772;23;20255;-51
2021/11/27 02:42:37;;;;;;;5.10;2.38;;;;;;;;;;5015053;28;20196;-51
2021/11/27 02:45:05;;;;;;;2.83;2.63;;;;;;;;;;5016996;28;20179;-52
2021/11/27 02:47:31;;;;;;;2.30;2.20;;;;;;;;;;5016629;28;20224;-51
2021/11/27 02:49:59;;;;;;;2.90;2.60;;;;;;;;;;5017072;28;20658;-51
2021/11/27 02:52:26;;;;;;;3.67;2.42;;;;;;;;;;5018319;28;20399;-52
2021/11/27 02:54:53;;;;;;;7.20;3.15;;;;;;;;;;5018162;28;20179;-53
2021/11/27 02:57:19;;;;;;;3.17;2.53;;;;;;;;;;5018930;28;20527;-53
2021/11/27 02:59:45;;;;;;;2.40;2.30;;;;;;;;;;5017484;28;20259;-53
2021/11/27 03:02:11;;;;;;;5.23;2.03;;;;;;;;;;5019046;28;20430;-51
2021/11/27 03:04:37;;;;;;;2.70;2.50;;;;;;;;;;5017392;28;20815;-52
2021/11/27 03:07:04;;;;;;;2.75;2.55;;;;;;;;;;5017412;28;20796;-53
2021/11/27 03:09:31;;;;;;;2.70;2.50;;;;;;;;;;5017261;28;20191;-52
2021/11/27 03:11:58;;;;;;;2.72;2.50;;;;;;;;;;5018209;28;20647;-52
2021/11/27 03:14:25;;;;;;;3.33;3.05;;;;;;;;;;5018119;28;20179;-52
2021/11/27 03:16:51;;;;;;;3.10;2.90;;;;;;;;;;5018210;28;20616;-52
2021/11/27 03:19:17;;;;;;;2.90;2.70;;;;;;;;;;5018194;28;20207;-52
2021/11/27 03:21:44;;;;;;;2.40;2.30;;;;;;;;;;5018887;28;20176;-52
2021/11/27 03:24:10;;;;;;;3.08;2.88;;;;;;;;;;5018656;28;20528;-52
2021/11/27 03:26:37;;;;;;;2.70;2.50;;;;;;;;;;5019122;28;20164;-53
2021/11/27 03:29:03;;;;;;;2.38;2.22;;;;;;;;;;5018668;28;20196;-53
2021/11/27 03:31:29;;;;;;;2.60;2.50;;;;;;;;;;5020635;28;20636;-52
2021/11/27 03:33:55;;;;;;;3.03;2.83;;;;;;;;;;5019932;28;20229;-52
2021/11/27 03:36:22;;;;;;;3.13;2.85;;;;;;;;;;5018831;28;20203;-53
2021/11/27 03:38:48;;;;;;;2.90;2.70;;;;;;;;;;5017894;28;20195;-52
2021/11/27 03:41:15;;;;;;;4.03;3.10;;;;;;;;;;5019220;28;20267;-52
2021/11/27 03:43:42;;;;;;;2.83;2.63;;;;;;;;;;5018457;28;20235;-52
2021/11/27 03:46:08;;;;;;;3.50;3.20;;;;;;;;;;5019301;28;20173;-52
2021/11/27 03:48:36;;;;;;;2.80;2.60;;;;;;;;;;5018603;28;20302;-53
2021/11/27 03:51:03;;;;;;;2.85;2.65;;;;;;;;;;5019512;28;20183;-53
2021/11/27 03:53:31;;;;;;;2.70;2.60;;;;;;;;;;5018752;28;20256;-53
2021/11/27 03:55:58;;;;;;;2.92;2.72;;;;;;;;;;5018832;28;20594;-53
2021/11/27 03:58:25;;;;;;;2.97;2.78;;;;;;;;;;5018677;28;20223;-52
2021/11/27 04:00:54;;;;;;;3.15;2.95;;;;;;;;;;5019410;28;20180;-52
2021/11/27 04:03:21;;;;;;;3.10;2.90;;;;;;;;;;5019048;28;20193;-53
2021/11/27 04:05:48;;;;;;;3.00;2.67;;;;;;;;;;5020128;28;20168;-52
2021/11/27 04:08:14;;;;;;;3.10;2.90;;;;;;;;;;5018962;28;20164;-53
2021/11/27 04:10:40;;;;;;;3.27;3.07;;;;;;;;;;5019455;28;20189;-53
2021/11/27 04:13:07;;;;;;;3.25;3.05;;;;;;;;;;5019143;28;20407;-52
2021/11/27 04:15:33;;;;;;;3.83;3.53;;;;;;;;;;5019102;28;20211;-53
2021/11/27 04:17:59;;;;;;;3.63;3.42;;;;;;;;;;5019050;28;20176;-54
2021/11/27 04:20:25;;;;;;;3.73;3.40;;;;;;;;;;5019360;28;20805;-53
2021/11/27 04:22:51;;;;;;;3.28;3.08;;;;;;;;;;5001953;28;20565;-53
2021/11/27 04:25:17;;;;;;;3.83;3.57;;;;;;;;;;5019176;28;20311;-53
2021/11/27 04:27:43;;;;;;;4.00;3.70;;;;;;;;;;5013838;28;20399;-54
2021/11/27 04:30:11;;;;;;;4.13;3.72;;;;;;;;;;5014133;28;20419;-53
2021/11/27 04:32:37;;;;;;;3.92;3.63;;;;;;;;;;5014365;28;20611;-53
2021/11/27 04:35:04;;;;;;;3.65;3.35;;;;;;;;;;5013934;28;20165;-53
2021/11/27 04:37:30;;;;;;;5.15;4.70;;;;;;;;;;4995754;28;20176;-53
2021/11/27 04:39:55;;;;;;;6.30;5.57;;;;;;;;;;5013974;28;20589;-53
2021/11/27 04:42:22;;;;;;;7.80;6.73;;;;;;;;;;5014156;28;20481;-53
2021/11/27 04:44:48;;;;;;;9.05;6.65;;;;;;;;;;5013760;28;20534;-54
2021/11/27 04:47:15;;;;;;;7.75;5.38;;;;;;;;;;5013007;28;20168;-53
2021/11/27 04:49:41;;;;;;;6.15;5.43;;;;;;;;;;5013830;28;20652;-53
2021/11/27 04:52:07;;;;;;;6.85;5.70;;;;;;;;;;5014096;28;20251;-53
2021/11/27 04:54:36;;;;;;;3.90;3.35;;;;;;;;;;5013831;28;20172;-53
2021/11/27 04:57:02;;;;;;;3.75;3.13;;;;;;;;;;5014137;28;20693;-53
2021/11/27 04:59:28;;;;;;;4.38;3.38;;;;;;;;;;5013120;28;20675;-53
2021/11/27 05:01:54;;;;;;;3.40;3.10;;;;;;;;;;5013603;28;20184;-53
2021/11/27 05:04:20;;;;;;;2.53;2.33;;;;;;;;;;5013283;28;20230;-53
2021/11/27 05:06:48;;;;;;;3.08;2.78;;;;;;;;;;5013824;28;20415;-53
2021/11/27 05:09:14;;;;;;;3.42;2.80;;;;;;;;;;5012897;28;20195;-54
2021/11/27 05:11:40;;;;;;;3.45;2.70;;;;;;;;;;5013742;28;20240;-53
2021/11/27 05:14:06;;;;;;;4.35;3.30;;;;;;;;;;5013726;28;20207;-53
2021/11/27 05:16:32;;;;;;;3.40;2.87;;;;;;;;;;5013447;28;20563;-53
2021/11/27 05:18:58;;;;;;;4.22;3.80;;;;;;;;;;5012944;28;20435;-53
2021/11/27 05:21:24;;;;;;;3.17;2.88;;;;;;;;;;5013618;28;20175;-53
2021/11/27 05:23:51;;;;;;;3.65;3.35;;;;;;;;;;5013687;28;20204;-53
2021/11/27 05:26:17;;;;;;;6.72;3.70;;;;;;;;;;5013387;28;20164;-53
2021/11/27 05:28:43;;;;;;;4.35;3.58;;;;;;;;;;5012520;28;20188;-53
2021/11/27 05:31:12;;;;;;;3.72;3.00;;;;;;;;;;5013990;28;20173;-54
2021/11/27 05:36:14;;;;;;;3.05;2.85;;;;;;;;;;5013334;28;20226;-53
2021/11/27 05:38:40;;;;;;;4.57;3.65;;;;;;;;;;5012822;28;20195;-53
2021/11/27 05:41:06;;;;;;;6.75;3.55;;;;;;;;;;5013342;28;20204;-53
2021/11/27 05:43:33;;;;;;;5.72;3.85;;;;;;;;;;5012977;28;20563;-53
2021/11/27 05:45:59;;;;;;;4.57;3.50;;;;;;;;;;5013099;28;20187;-53
2021/11/27 05:48:25;;;;;;;5.95;3.75;;;;;;;;;;5012372;28;20558;-53
2021/11/27 05:50:51;;;;;;;5.07;4.05;;;;;;;;;;5013370;28;20192;-53
2021/11/27 05:53:18;;;;;;;6.28;4.70;;;;;;;;;;5013345;28;20260;-53
2021/11/27 05:55:48;;;;;;;8.95;4.80;;;;;;;;;;5013184;28;20207;-53
2021/11/27 05:58:14;;;;;;;5.55;4.03;;;;;;;;;;5013766;28;20174;-53
2021/11/27 06:00:42;;;;;;;8.77;5.30;;;;;;;;;;5016923;28;20192;-53
2021/11/27 06:03:08;;;;;;;6.72;5.15;;;;;;;;;;5016353;28;20192;-53
2021/11/27 06:05:34;;;;;;;7.68;5.15;;;;;;;;;;5016541;28;20179;-53
2021/11/27 06:08:00;;;;;;;8.30;5.33;;;;;;;;;;5015856;28;20164;-53
2021/11/27 06:10:26;;;;;;;6.40;5.53;;;;;;;;;;4999008;28;20509;-53
2021/11/27 06:12:52;;;;;;;5.95;4.60;;;;;;;;;;5016068;28;20571;-53
2021/11/27 06:15:18;;;;;;;7.13;5.35;;;;;;;;;;5015765;28;20595;-54
2021/11/27 06:17:44;;;;;;;4.90;3.93;;;;;;;;;;5015180;28;20176;-53
2021/11/27 06:20:11;;;;;;;6.82;5.20;;;;;;;;;;5015392;28;20471;-53
2021/11/27 06:22:37;;;;;;;5.70;4.15;;;;;;;;;;5015969;28;20774;-54
2021/11/27 06:25:03;;;;;;;5.30;4.50;;;;;;;;;;5015968;28;20193;-53
2021/11/27 06:27:29;;;;;;;6.57;4.53;;;;;;;;;;5015389;28;20414;-53
2021/11/27 06:29:55;;;;;;;6.87;5.00;;;;;;;;;;5016102;28;20244;-53
2021/11/27 06:32:25;;;;;;;8.63;5.00;;;;;;;;;;5016580;28;20883;-53
2021/11/27 06:34:51;;;;;;;5.75;4.90;;;;;;;;;;5015943;28;20765;-53
2021/11/27 06:37:19;;;;;;;5.32;4.75;;;;;;;;;;5015968;28;20225;-53
2021/11/27 06:39:45;;;;;;;6.60;5.15;;;;;;;;;;5015277;28;20240;-53
2021/11/27 06:42:11;;;;;;;8.53;4.90;;;;;;;;;;5016444;28;20207;-53
2021/11/27 06:44:37;;;;;;;7.23;4.60;;;;;;;;;;5016079;28;20445;-53
2021/11/27 06:47:03;;;;;;;5.85;4.60;;;;;;;;;;5016587;28;20406;-53
2021/11/27 06:49:29;;;;;;;6.55;5.20;;;;;;;;;;5021204;28;20187;-53
2021/11/27 06:51:55;;;;;;;8.48;5.88;;;;;;;;;;5022968;28;20630;-52
2021/11/27 06:54:21;;;;;;;7.80;5.50;;;;;;;;;;5022973;28;20168;-53
2021/11/27 06:56:47;;;;;;;6.90;6.20;;;;;;;;;;5022042;28;20516;-52
2021/11/27 06:59:13;;;;;;;7.70;6.10;;;;;;;;;;5021989;28;20427;-53
2021/11/27 07:01:39;;;;;;;8.63;6.57;;;;;;;;;;5022668;28;20447;-53
2021/11/27 07:04:05;;;;;;;9.07;6.60;;;;;;;;;;5022202;28;20196;-53
2021/11/27 07:06:31;;;;;;;9.38;6.35;;;;;;;;;;5019938;28;20419;-53
2021/11/27 07:08:57;;;;;;;9.65;6.97;;;;;;;;;;5022505;28;20196;-52
2021/11/27 07:11:23;;;;;;;11.25;6.70;;;;;;;;;;5014587;28;20187;-52
2021/11/27 07:13:49;;;;;;;7.70;6.03;;;;;;;;;;5021818;28;20179;-53
2021/11/27 07:16:15;;;;;;;9.67;6.67;;;;;;;;;;5022863;28;20255;-54
2021/11/27 07:18:41;;;;;;;10.17;7.10;;;;;;;;;;5021812;28;20423;-53
2021/11/27 07:21:07;;;;;;;9.50;7.13;;;;;;;;;;5022890;28;20408;-54
2021/11/27 07:23:33;;;;;;;12.50;7.83;;;;;;;;;;5023152;28;20541;-53
2021/11/27 07:25:59;;;;;;;9.67;6.90;;;;;;;;;;5005351;28;20418;-53
2021/11/27 07:28:25;;;;;;;9.43;7.07;;;;;;;;;;5022529;28;20494;-53
2021/11/27 07:30:51;;;;;;;11.17;6.90;;;;;;;;;;5023153;28;20407;-53
2021/11/27 07:33:19;;;;;;;12.73;7.57;;;;;;;;;;5022971;28;20403;-53
2021/11/27 07:35:45;;;;;;;10.00;7.57;;;;;;;;;;5022559;28;20415;-54
2021/11/27 07:38:11;;;;;;;10.68;7.57;;;;;;;;;;5022138;28;20636;-53
2021/11/27 07:40:37;;;;;;;9.43;7.50;;;;;;;;;;5004471;28;20216;-53
2021/11/27 07:43:05;;;;;;;10.55;7.43;;;;;;;;;;5022709;28;20202;-53
2021/11/27 07:45:33;;;;;;;8.85;6.82;;;;;;;;;;5022348;28;20632;-53
2021/11/27 07:47:59;;;;;;;11.02;7.78;;;;;;;;;;5022315;28;20191;-53
2021/11/27 07:50:25;;;;;;;11.15;8.15;;;;;;;;;;5022052;28;20192;-54
2021/11/27 07:52:51;;;;;;;13.30;8.60;;;;;;;;;;5021928;28;20165;-52
2021/11/27 07:55:17;;;;;;;11.93;7.25;;;;;;;;;;5021667;28;20632;-53
2021/11/27 07:57:43;;;;;;;11.10;7.90;;;;;;;;;;5021894;28;20773;-54
2021/11/27 08:00:09;;;;;;;10.83;7.93;;;;;;;;;;5012702;28;20827;-53
2021/11/27 08:02:36;;;;;;;12.00;7.93;;;;;;;;;;4987816;28;20411;-53
2021/11/27 08:05:02;;;;;;;9.00;7.28;;;;;;;;;;5020180;28;20175;-52
2021/11/27 08:07:28;;;;;;;11.65;7.55;;;;;;;;;;5017190;28;20258;-52
2021/11/27 08:09:55;;;;;;;9.77;6.53;;;;;;;;;;5034424;28;20283;-53
2021/11/27 08:12:21;;;;;;;11.95;8.38;;;;;;;;;;5019828;28;20168;-53
2021/11/27 08:14:50;;;;;;;11.63;7.47;;;;;;;;;;5021664;28;20493;-53
2021/11/27 08:17:16;;;;;;;13.00;8.55;;;;;;;;;;5021053;28;20222;-52
2021/11/27 08:19:42;;;;;;;10.32;6.75;;;;;;;;;;5020913;28;20570;-53
2021/11/27 08:22:08;;;;;;;11.65;7.53;;;;;;;;;;5021142;28;20247;-53
2021/11/27 08:24:34;;;;;;;8.70;7.10;;;;;;;;;;5020897;28;20278;-53
2021/11/27 08:27:00;;;;;;;14.10;7.90;;;;;;;;;;5020780;28;20164;-52
2021/11/27 08:29:26;;;;;;;9.53;7.37;;;;;;;;;;5019593;28;20232;-53
2021/11/27 08:31:52;;;;;;;8.88;6.68;;;;;;;;;;5020700;28;20450;-52
2021/11/27 08:34:18;;;;;;;16.60;6.73;;;;;;;;;;5020790;28;20176;-53
2021/11/27 08:36:46;;;;;;;11.55;7.60;;;;;;;;;;5020450;28;20403;-53
2021/11/27 08:39:12;;;;;;;10.93;7.88;;;;;;;;;;5017272;28;20580;-51
2021/11/27 08:41:38;;;;;;;9.07;6.60;;;;;;;;;;5013637;28;20172;-51
2021/11/27 08:44:04;;;;;;;9.35;7.15;;;;;;;;;;5012677;28;20693;-52
2021/11/27 08:46:30;;;;;;;9.93;7.20;;;;;;;;;;5012880;28;20641;-51
2021/11/27 08:48:56;;;;;;;8.70;6.23;;;;;;;;;;5012224;28;20421;-52
2021/11/27 08:51:22;;;;;;;9.10;7.23;;;;;;;;;;5013129;28;20396;-51
2021/11/27 08:53:48;;;;;;;7.83;6.77;;;;;;;;;;5012379;28;20892;-52
2021/11/27 08:56:14;;;;;;;10.30;6.60;;;;;;;;;;5013366;28;20404;-52
2021/11/27 08:58:42;;;;;;;8.87;6.70;;;;;;;;;;5011840;28;20421;-52
2021/11/27 09:01:09;;;;;;;8.57;7.15;;;;;;;;;;5012567;28;20403;-51
2021/11/27 09:03:35;;;;;;;9.55;7.53;;;;;;;;;;5012345;28;20675;-52
2021/11/27 09:06:01;;;;;;;10.25;8.05;;;;;;;;;;5012310;28;20190;-52
2021/11/27 09:08:28;;;;;;;9.52;6.93;;;;;;;;;;5011885;28;20213;-51
2021/11/27 09:10:54;;;;;;;13.00;7.47;;;;;;;;;;5012307;28;20172;-51
2021/11/27 09:13:20;;;;;;;11.80;7.68;;;;;;;;;;5012379;28;20557;-51
2021/11/27 09:15:46;;;;;;;12.02;7.35;;;;;;;;;;5012132;28;20184;-51
2021/11/27 09:18:12;;;;;;;11.37;7.23;;;;;;;;;;5011572;28;20174;-51
2021/11/27 09:20:39;;;;;;;9.50;6.82;;;;;;;;;;5012115;28;20415;-51
2021/11/27 09:23:06;;;;;;;10.93;7.50;;;;;;;;;;5011869;28;20212;-51
2021/11/27 09:25:32;;;;;;;16.85;8.90;;;;;;;;;;5012183;28;20173;-51
2021/11/27 09:27:59;;;;;;;13.95;8.35;;;;;;;;;;5011466;28;20191;-53
2021/11/27 09:30:26;;;;;;;16.55;8.80;;;;;;;;;;5012036;28;20180;-51
2021/11/27 09:32:52;;;;;;;12.60;9.30;;;;;;;;;;5011571;28;20192;-50
2021/11/27 09:35:18;;;;;;;13.13;8.65;;;;;;;;;;5011971;28;20168;-52
2021/11/27 09:37:44;;;;;;;13.63;9.73;;;;;;;;;;5011230;28;20223;-51
2021/11/27 09:40:10;;;;;;;11.55;9.18;;;;;;;;;;5011863;28;20204;-51
2021/11/27 09:42:41;;;;;;;12.80;8.60;;;;;;;;;;5011942;28;20168;-51
2021/11/27 09:45:09;;;;;;;16.77;9.45;;;;;;;;;;5011884;28;20790;-51
2021/11/27 09:47:36;;;;;;;18.15;9.10;;;;;;;;;;5011294;28;20195;-51
2021/11/27 09:50:05;;;;;;;17.60;9.48;;;;;;;;;;5011733;28;20686;-53
2021/11/27 09:52:31;;;;;;;14.10;9.50;;;;;;;;;;5011773;28;20165;-52
2021/11/27 09:54:57;;;;;;;19.70;10.27;;;;;;;;;;5011103;28;20169;-51
2021/11/27 09:57:24;;;;;;;13.98;9.70;;;;;;;;;;4993852;28;20415;-52
2021/11/27 09:59:50;;;;;;;13.93;9.70;;;;;;;;;;5011540;28;20267;-51
2021/11/27 10:02:17;;;;;;;15.30;9.60;;;;;;;;;;5011828;28;20671;-51
2021/11/27 10:04:49;;;;;;;16.02;9.70;;;;;;;;;;5011472;28;20463;-51
2021/11/27 10:07:17;;;;;;;13.80;8.40;;;;;;;;;;5011703;28;20163;-51
2021/11/27 10:09:44;;;;;;;11.80;9.25;;;;;;;;;;5011064;28;20678;-51
2021/11/27 10:12:11;;;;;;;11.93;8.43;;;;;;;;;;5012434;28;20165;-51
2021/11/27 10:14:39;;;;;;;16.27;8.55;;;;;;;;;;5012268;28;20161;-51
2021/11/27 10:17:07;;;;;;;12.55;8.02;;;;;;;;;;5012577;28;20226;-53
2021/11/27 10:19:42;;;;;;;12.07;7.93;;;;;;;;;;5012147;28;20197;-53
2021/11/27 10:22:10;;;;;;;14.30;8.85;;;;;;;;;;5012042;28;20172;-55
2021/11/27 10:24:37;;;;;;;16.50;7.47;;;;;;;;;;5012406;28;20564;-53
2021/11/27 10:27:16;;;;;;;13.60;6.33;;;;;;;;;;5016206;28;20405;-54
2021/11/27 10:29:42;;;;;;;12.90;5.93;;;;;;;;;;5011714;28;20544;-52
2021/11/27 10:32:10;;;;;;;13.40;5.90;;;;;;;;;;5011627;28;20399;-52
2021/11/27 10:34:37;;;;;;;7.53;5.77;;;;;;;;;;5011379;28;20413;-51
2021/11/27 10:37:24;;;;;;;8.40;5.13;;;;;;;;;;5011336;28;20403;-52
2021/11/27 10:40:08;;;;;;;9.33;5.00;;;;;;;;;;5010826;28;20977;-52
2021/11/27 10:42:34;;;;;;;9.63;5.80;;;;;;;;;;5011372;28;20415;-52
2021/11/27 10:45:12;;;;;;;16.43;5.17;;;;;;;;;;5007177;28;20459;-52
2021/11/27 10:47:40;;;;;;;17.43;5.27;;;;;;;;;;5014297;28;20407;-52
2021/11/27 10:50:10;;;;;;;13.67;5.63;;;;;;;;;;5015227;28;20518;-52
2021/11/27 10:52:39;;;;;;;17.00;5.30;;;;;;;;;;5014662;28;20391;-51
2021/11/27 10:55:15;;;;;;;11.53;6.03;;;;;;;;;;5014742;28;20457;-52
2021/11/27 10:57:42;;;;;;;8.10;5.73;;;;;;;;;;5014289;28;20415;-52
2021/11/27 11:00:23;;;;;;;10.80;5.80;;;;;;;;;;5015145;28;20526;-52
2021/11/27 11:02:49;;;;;;;7.10;5.63;;;;;;;;;;5014704;28;20408;-53
2021/11/27 11:05:15;;;;;;;12.57;5.23;;;;;;;;;;4997026;28;20407;-52
2021/11/27 11:07:42;;;;;;;12.93;5.80;;;;;;;;;;5013830;28;20404;-51
2021/11/27 11:10:08;;;;;;;10.87;6.60;;;;;;;;;;5014294;28;20415;-52
2021/11/27 11:12:39;;;;;;;14.23;5.40;;;;;;;;;;5011478;28;20410;-52
2021/11/27 11:15:24;;;;;;;11.67;6.00;;;;;;;;;;5005908;28;20415;-51
2021/11/27 11:20:27;;;;;;;11.97;5.40;;;;;;;;;;5383085;23;20591;-49
2021/11/27 11:22:59;;;;;;;7.03;4.93;;;;;;;;;;5013702;28;20440;-53
2021/11/27 11:25:26;;;;;;;9.20;5.80;;;;;;;;;;5014029;28;20423;-49
2021/11/27 11:27:52;;;;;;;11.93;6.30;;;;;;;;;;5014333;28;20414;-50
2021/11/27 11:30:22;;;;;;;6.90;5.20;;;;;;;;;;5013787;28;20424;-50
2021/11/27 11:32:48;;;;;;;8.43;5.40;;;;;;;;;;5014259;28;20891;-51
2021/11/27 11:35:15;;;;;;;10.07;5.80;;;;;;;;;;5014964;28;20889;-51
2021/11/27 11:37:41;;;;;;;11.20;5.93;;;;;;;;;;5014641;28;20473;-52
2021/11/27 11:40:07;;;;;;;10.77;4.77;;;;;;;;;;5014264;28;20420;-52
2021/11/27 11:42:33;;;;;;;8.83;4.90;;;;;;;;;;5013611;28;20911;-53
2021/11/27 11:50:31;;;;;;;7.70;5.07;;;;;;;;;;5947048;22;20462;-50
2021/11/27 11:53:03;;;;;;;9.40;4.70;;;;;;;;;;5007190;28;20253;-50
2021/11/27 11:55:29;;;;;;;14.07;4.70;;;;;;;;;;5013278;28;20430;-50
2021/11/27 11:57:56;;;;;;;9.70;4.80;;;;;;;;;;5013694;28;20406;-50
2021/11/27 12:00:33;;;;;;;7.83;5.00;;;;;;;;;;5013242;28;20572;-52
2021/11/27 12:03:07;;;;;;;10.93;6.30;;;;;;;;;;5013439;28;20436;-50
2021/11/27 12:05:34;;;;;;;14.43;5.77;;;;;;;;;;5014451;28;20409;-50
2021/11/27 12:08:01;;;;;;;9.10;5.60;;;;;;;;;;5013584;28;20400;-49
2021/11/27 12:10:28;;;;;;;10.07;5.20;;;;;;;;;;5013104;28;20423;-51
2021/11/27 12:13:07;;;;;;;12.70;5.83;;;;;;;;;;5013344;28;20895;-50
2021/11/27 12:15:33;;;;;;;13.13;4.77;;;;;;;;;;5013086;28;20434;-50
2021/11/27 12:18:02;;;;;;;9.57;4.63;;;;;;;;;;5013219;28;20412;-50
2021/11/27 12:20:41;;;;;;;8.97;4.23;;;;;;;;;;5012709;28;20427;-52
2021/11/27 12:23:42;;;;;;;7.30;4.60;;;;;;;;;;5013065;28;20454;-51
2021/11/27 12:26:11;;;;;;;14.40;6.80;;;;;;;;;;4961200;28;20451;-52
2021/11/27 12:28:37;;;;;;;10.53;4.60;;;;;;;;;;5012632;28;20483;-49
2021/11/27 12:31:06;;;;;;;7.47;4.07;;;;;;;;;;5012371;28;20443;-50
2021/11/27 12:33:41;;;;;;;14.70;4.53;;;;;;;;;;5012620;28;20941;-49
2021/11/27 12:36:07;;;;;;;11.70;4.63;;;;;;;;;;5012539;28;20410;-51
2021/11/27 12:38:33;;;;;;;10.53;4.37;;;;;;;;;;5012734;28;20443;-51
2021/11/27 12:41:00;;;;;;;9.03;4.63;;;;;;;;;;5012626;28;20427;-52
2021/11/27 12:43:27;;;;;;;5.60;4.00;;;;;;;;;;5012578;28;20792;-50
2021/11/27 12:45:59;;;;;;;7.43;3.80;;;;;;;;;;5012812;28;20487;-49
2021/11/27 12:48:31;;;;;;;6.63;3.50;;;;;;;;;;5012669;28;20475;-50
2021/11/27 12:51:18;;;;;;;6.57;3.63;;;;;;;;;;5012795;28;20419;-49
2021/11/27 12:54:03;;;;;;;5.60;3.13;;;;;;;;;;5012627;28;20427;-50
2021/11/27 12:56:47;;;;;;;11.83;4.10;;;;;;;;;;5012568;28;20412;-50
2021/11/27 12:59:23;;;;;;;8.93;3.90;;;;;;;;;;5012470;28;20899;-49
2021/11/27 13:01:52;;;;;;;5.47;3.07;;;;;;;;;;5012310;28;20799;-50
2021/11/27 13:04:22;;;;;;;6.27;3.90;;;;;;;;;;5012192;28;20950;-49
2021/11/27 13:06:50;;;;;;;3.87;3.23;;;;;;;;;;5012465;28;20403;-48
2021/11/27 13:09:17;;;;;;;6.73;3.10;;;;;;;;;;5011614;28;20400;-49
2021/11/27 13:11:45;;;;;;;6.93;3.50;;;;;;;;;;5012001;28;20431;-49
2021/11/27 13:14:24;;;;;;;6.33;3.07;;;;;;;;;;5012121;28;20882;-49
2021/11/27 13:16:50;;;;;;;7.10;3.10;;;;;;;;;;5012336;28;20403;-50
2021/11/27 13:19:27;;;;;;;9.27;3.50;;;;;;;;;;5012181;28;20959;-49
2021/11/27 13:21:53;;;;;;;8.63;3.23;;;;;;;;;;5012146;28;20445;-49
2021/11/27 13:24:20;;;;;;;5.67;3.17;;;;;;;;;;5011830;28;20501;-49
2021/11/27 13:26:46;;;;;;;5.73;3.63;;;;;;;;;;5012218;28;20403;-49
2021/11/27 13:29:12;;;;;;;9.07;3.80;;;;;;;;;;5012270;28;20461;-49
2021/11/27 13:31:39;;;;;;;9.97;3.50;;;;;;;;;;5011847;28;20447;-49
2021/11/27 13:34:09;;;;;;;13.10;3.83;;;;;;;;;;5011841;28;20406;-50
2021/11/27 13:36:36;;;;;;;5.40;4.00;;;;;;;;;;5011988;28;20964;-49
2021/11/27 13:39:19;;;;;;;4.83;3.27;;;;;;;;;;5011825;28;20935;-49
2021/11/27 13:41:47;;;;;;;7.73;3.13;;;;;;;;;;5011692;28;20438;-49
2021/11/27 13:44:13;;;;;;;5.10;3.23;;;;;;;;;;5011824;28;20541;-50
2021/11/27 13:46:53;;;;;;;6.07;3.10;;;;;;;;;;5012078;28;20416;-50
2021/11/27 13:49:34;;;;;;;10.67;3.70;;;;;;;;;;5011755;28;20887;-51
2021/11/27 13:52:00;;;;;;;6.63;3.43;;;;;;;;;;5011731;28;20422;-50
2021/11/27 13:54:33;;;;;;;11.23;2.83;;;;;;;;;;5011837;28;20440;-49
2021/11/27 13:56:59;;;;;;;9.70;2.90;;;;;;;;;;5011898;28;20396;-50
2021/11/27 13:59:26;;;;;;;8.20;3.17;;;;;;;;;;5011867;28;20397;-50
2021/11/27 14:02:18;;;;;;;6.80;2.70;;;;;;;;;;5011383;28;20415;-50
2021/11/27 14:04:46;;;;;;;9.37;3.77;;;;;;;;;;5007516;28;20475;-49
2021/11/27 14:07:13;;;;;;;4.33;3.00;;;;;;;;;;5011851;28;20418;-50
2021/11/27 14:09:52;;;;;;;8.90;3.07;;;;;;;;;;5011577;28;20399;-51
2021/11/27 14:12:52;;;;;;;6.03;2.47;;;;;;;;;;4993722;28;20442;-51
2021/11/27 14:15:27;;;;;;;11.40;3.27;;;;;;;;;;4954973;28;20475;-51
2021/11/27 14:18:08;;;;;;;4.13;2.60;;;;;;;;;;4972944;28;20400;-51
2021/11/27 14:20:45;;;;;;;4.20;2.50;;;;;;;;;;4975286;28;20416;-50
2021/11/27 14:23:34;;;;;;;5.27;3.03;;;;;;;;;;4976218;28;20480;-51
2021/11/27 14:26:00;;;;;;;6.07;2.73;;;;;;;;;;4966205;28;20416;-49
2021/11/27 14:28:26;;;;;;;5.13;2.57;;;;;;;;;;4976382;28;20856;-49
2021/11/27 14:30:52;;;;;;;6.03;2.20;;;;;;;;;;4975830;28;20436;-50
2021/11/27 14:33:21;;;;;;;3.80;2.40;;;;;;;;;;4974285;28;20458;-50
2021/11/27 14:36:07;;;;;;;2.40;1.97;;;;;;;;;;4975381;28;20409;-50
2021/11/27 14:38:52;;;;;;;8.80;3.03;;;;;;;;;;4974107;28;20764;-49
2021/11/27 14:41:20;;;;;;;4.67;2.10;;;;;;;;;;4975701;28;20857;-50
2021/11/27 14:43:52;;;;;;;10.73;2.97;;;;;;;;;;4975553;28;20458;-50
2021/11/27 14:46:30;;;;;;;2.20;1.90;;;;;;;;;;4975962;28;20668;-49
2021/11/27 14:48:57;;;;;;;5.03;2.67;;;;;;;;;;4975923;28;20494;-53
2021/11/27 14:51:23;;;;;;;3.00;2.27;;;;;;;;;;4975649;28;20473;-50
2021/11/27 14:53:49;;;;;;;6.17;2.50;;;;;;;;;;4975787;28;20421;-51
2021/11/27 14:56:15;;;;;;;6.60;2.20;;;;;;;;;;4975810;28;20402;-50